createdAt,value
2022-11-17T00:01:34.406Z,6.70
2022-11-17T00:04:01.237Z,6.60
2022-11-17T00:06:28.187Z,6.60
2022-11-17T00:08:55.037Z,6.70
2022-11-17T00:11:21.961Z,6.70
2022-11-17T00:13:48.782Z,6.70
2022-11-17T00:16:17.816Z,6.70
2022-11-17T00:18:44.862Z,6.70
2022-11-17T00:21:17.094Z,6.70
2022-11-17T00:23:43.866Z,6.70
2022-11-17T00:26:10.657Z,6.70
2022-11-17T00:28:37.473Z,6.70
2022-11-17T00:31:04.258Z,6.80
2022-11-17T00:33:31.058Z,6.80
2022-11-17T00:35:58.838Z,6.70
2022-11-17T00:38:25.617Z,6.60
2022-11-17T00:40:52.454Z,6.70
2022-11-17T00:43:19.270Z,6.60
2022-11-17T00:45:46.088Z,6.70
2022-11-17T00:48:12.949Z,6.70
2022-11-17T00:50:39.735Z,6.70
2022-11-17T00:53:06.517Z,6.70
2022-11-17T00:55:33.344Z,6.70
2022-11-17T00:58:00.163Z,6.70
2022-11-17T01:00:26.934Z,6.70
2022-11-17T01:02:53.723Z,6.60
2022-11-17T01:05:20.499Z,6.50
2022-11-17T01:07:47.348Z,6.50
2022-11-17T01:10:14.182Z,6.60
2022-11-17T01:12:40.951Z,6.50
2022-11-17T01:15:08.348Z,6.60
2022-11-17T01:17:35.201Z,6.70
2022-11-17T01:20:02.032Z,6.70
2022-11-17T01:22:28.794Z,6.60
2022-11-17T01:24:57.738Z,6.70
2022-11-17T01:27:24.602Z,6.60
2022-11-17T01:29:51.444Z,6.70
2022-11-17T01:32:18.284Z,6.60
2022-11-17T01:34:45.097Z,6.60
2022-11-17T01:37:13.283Z,6.60
2022-11-17T01:39:40.076Z,6.50
2022-11-17T01:42:14.694Z,6.60
2022-11-17T01:44:59.686Z,6.60
2022-11-17T01:47:44.697Z,6.60
2022-11-17T01:50:46.365Z,6.50
2022-11-17T01:53:19.282Z,6.60
2022-11-17T01:55:54.101Z,6.60
2022-11-17T01:58:46.855Z,6.60
2022-11-17T02:01:13.952Z,6.50
2022-11-17T02:03:43.356Z,6.60
2022-11-17T02:06:16.733Z,6.60
2022-11-17T02:08:46.449Z,6.70
2022-11-17T02:11:16.168Z,6.60
2022-11-17T02:13:43.300Z,6.50
2022-11-17T02:16:14.723Z,6.60
2022-11-17T02:18:43.513Z,6.60
2022-11-17T02:21:10.241Z,6.60
2022-11-17T02:23:58.776Z,6.70
2022-11-17T02:26:46.811Z,6.70
2022-11-17T02:29:16.994Z,6.70
2022-11-17T02:31:54.558Z,6.60
2022-11-17T02:34:59.002Z,6.60
2022-11-17T02:37:28.686Z,6.50
2022-11-17T02:40:15.266Z,6.50
2022-11-17T02:42:44.706Z,6.50
2022-11-17T02:45:17.658Z,6.60
2022-11-17T02:47:48.227Z,6.70
2022-11-17T02:50:16.825Z,6.60
2022-11-17T02:52:43.679Z,6.50
2022-11-17T02:55:11.638Z,6.60
2022-11-17T02:57:40.725Z,6.60
2022-11-17T03:00:09.908Z,6.60
2022-11-17T03:02:45.761Z,6.60
2022-11-17T03:05:53.325Z,6.60
2022-11-17T03:08:32.965Z,6.50
2022-11-17T03:11:02.028Z,6.50
2022-11-17T03:13:49.260Z,6.50
2022-11-17T03:16:56.198Z,6.50
2022-11-17T03:19:37.449Z,6.60
2022-11-17T03:22:25.546Z,6.50
2022-11-17T03:24:59.369Z,6.40
2022-11-17T03:27:33.829Z,6.40
2022-11-17T03:30:03.851Z,6.20
2022-11-17T03:32:36.094Z,6.50
2022-11-17T03:35:08.699Z,6.40
2022-11-17T03:37:41.455Z,6.40
2022-11-17T03:40:11.164Z,6.40
2022-11-17T03:42:42.166Z,6.40
2022-11-17T03:45:27.758Z,6.40
2022-11-17T03:48:03.681Z,6.40
2022-11-17T03:50:36.279Z,6.30
2022-11-17T03:53:04.957Z,6.20
2022-11-17T03:55:50.452Z,6.30
2022-11-17T03:58:19.718Z,6.30
2022-11-17T04:00:50.789Z,6.30
2022-11-17T04:03:17.616Z,6.20
2022-11-17T04:05:44.484Z,6.20
2022-11-17T04:08:11.260Z,6.20
2022-11-17T04:10:38.044Z,6.30
2022-11-17T04:13:04.846Z,6.30
2022-11-17T04:15:31.714Z,6.20
2022-11-17T04:17:58.583Z,6.20
2022-11-17T04:20:26.632Z,6.20
2022-11-17T04:22:53.410Z,6.10
2022-11-17T04:25:20.201Z,6.10
2022-11-17T04:27:49.205Z,6.00
2022-11-17T04:30:16.038Z,6.00
2022-11-17T04:32:42.812Z,6.10
2022-11-17T04:35:09.613Z,5.90
2022-11-17T04:37:36.448Z,5.80
2022-11-17T04:40:03.564Z,5.70
2022-11-17T04:42:30.350Z,6.00
2022-11-17T04:44:57.162Z,5.90
2022-11-17T04:47:23.983Z,5.80
2022-11-17T04:49:50.764Z,5.90
2022-11-17T04:52:17.597Z,5.90
2022-11-17T04:54:44.379Z,5.90
2022-11-17T04:57:11.185Z,5.80
2022-11-17T04:59:38.022Z,5.90
2022-11-17T05:02:06.283Z,5.90
2022-11-17T05:04:33.304Z,5.90
2022-11-17T05:07:00.194Z,5.60
2022-11-17T05:09:26.984Z,5.60
2022-11-17T05:11:53.849Z,5.50
2022-11-17T05:14:22.546Z,5.50
2022-11-17T05:16:49.604Z,5.50
2022-11-17T05:19:21.720Z,5.40
2022-11-17T05:21:48.994Z,5.60
2022-11-17T05:24:16.516Z,5.60
2022-11-17T05:26:44.436Z,5.80
2022-11-17T05:29:12.999Z,5.80
2022-11-17T05:31:40.065Z,5.70
2022-11-17T05:34:08.739Z,5.60
2022-11-17T05:36:35.636Z,5.60
2022-11-17T05:39:03.323Z,5.50
2022-11-17T05:41:30.115Z,5.50
2022-11-17T05:43:57.073Z,5.40
2022-11-17T05:46:25.066Z,5.40
2022-11-17T05:48:52.764Z,5.20
2022-11-17T05:51:23.110Z,5.40
2022-11-17T05:53:50.793Z,5.30
2022-11-17T05:56:25.390Z,5.30
2022-11-17T05:58:54.249Z,5.40
2022-11-17T06:01:22.554Z,5.20
2022-11-17T06:03:55.733Z,5.30
2022-11-17T06:06:23.005Z,5.20
2022-11-17T06:08:50.326Z,5.10
2022-11-17T06:11:17.204Z,5.00
2022-11-17T06:13:44.084Z,5.00
2022-11-17T06:16:14.064Z,5.10
2022-11-17T06:18:46.358Z,5.00
2022-11-17T06:21:15.997Z,5.10
2022-11-17T06:23:46.537Z,5.00
2022-11-17T06:26:14.516Z,5.00
2022-11-17T06:28:45.043Z,5.00
2022-11-17T06:31:12.341Z,5.10
2022-11-17T06:33:39.528Z,5.30
2022-11-17T06:36:07.844Z,5.20
2022-11-17T06:38:34.592Z,5.30
2022-11-17T06:41:05.182Z,5.40
2022-11-17T06:43:36.389Z,5.40
2022-11-17T06:46:04.889Z,5.40
2022-11-17T06:48:33.430Z,5.40
2022-11-17T06:51:01.100Z,5.40
2022-11-17T06:53:27.994Z,5.50
2022-11-17T06:55:54.843Z,5.50
2022-11-17T06:58:21.779Z,5.50
2022-11-17T07:00:48.726Z,5.50
2022-11-17T07:03:15.517Z,5.60
2022-11-17T07:05:42.278Z,5.70
2022-11-17T07:08:10.119Z,5.60
2022-11-17T07:10:37.538Z,5.70
2022-11-17T07:13:04.398Z,5.80
2022-11-17T07:15:32.048Z,5.80
2022-11-17T07:17:58.963Z,5.70
2022-11-17T07:20:25.784Z,5.80
2022-11-17T07:22:57.773Z,5.70
2022-11-17T07:25:24.607Z,5.70
2022-11-17T07:27:58.013Z,5.90
2022-11-17T07:30:25.127Z,6.00
2022-11-17T07:32:54.650Z,6.10
2022-11-17T07:35:21.828Z,6.10
2022-11-17T07:37:48.857Z,6.20
2022-11-17T07:40:15.811Z,6.40
2022-11-17T07:42:42.637Z,6.50
2022-11-17T07:45:10.689Z,6.50
2022-11-17T07:47:37.543Z,6.60
2022-11-17T07:50:04.581Z,6.60
2022-11-17T07:52:31.759Z,6.70
2022-11-17T07:54:58.514Z,6.80
2022-11-17T07:57:25.356Z,6.80
2022-11-17T07:59:52.172Z,6.80
2022-11-17T08:02:18.961Z,6.90
2022-11-17T08:04:45.763Z,6.80
2022-11-17T08:07:12.643Z,6.90
2022-11-17T08:09:39.494Z,7.00
2022-11-17T08:12:06.560Z,7.00
2022-11-17T08:14:33.310Z,7.10
2022-11-17T08:17:00.097Z,7.20
2022-11-17T08:19:26.902Z,7.20
2022-11-17T08:21:55.877Z,7.20
2022-11-17T08:24:22.717Z,7.20
2022-11-17T08:26:49.595Z,7.20
2022-11-17T08:29:16.392Z,7.30
2022-11-17T08:31:43.216Z,7.40
2022-11-17T08:34:10.101Z,7.50
2022-11-17T08:36:37.002Z,7.60
2022-11-17T08:39:03.984Z,7.70
2022-11-17T08:41:30.846Z,7.80
2022-11-17T08:43:57.759Z,7.70
2022-11-17T08:46:24.944Z,7.80
2022-11-17T08:48:56.926Z,7.80
2022-11-17T08:51:24.187Z,7.80
2022-11-17T08:53:51.406Z,7.80
2022-11-17T08:56:18.493Z,7.90
2022-11-17T08:58:45.821Z,7.90
2022-11-17T09:01:15.173Z,7.90
2022-11-17T09:03:46.803Z,8.00
2022-11-17T09:06:16.253Z,8.10
2022-11-17T09:08:46.110Z,8.20
2022-11-17T09:11:13.937Z,8.30
2022-11-17T09:13:40.789Z,8.30
2022-11-17T09:16:09.965Z,8.30
2022-11-17T09:18:38.568Z,8.30
2022-11-17T09:21:08.579Z,8.30
2022-11-17T09:23:35.713Z,8.30
2022-11-17T09:26:12.065Z,8.30
2022-11-17T09:28:39.609Z,8.50
2022-11-17T09:31:08.346Z,8.40
2022-11-17T09:33:35.690Z,8.40
2022-11-17T09:36:02.840Z,8.40
2022-11-17T09:38:29.728Z,8.40
2022-11-17T09:40:56.606Z,8.20
2022-11-17T09:43:34.226Z,8.30
2022-11-17T09:46:31.084Z,8.40
2022-11-17T09:49:11.607Z,8.30
2022-11-17T09:51:42.883Z,8.40
2022-11-17T09:54:18.825Z,8.50
2022-11-17T09:56:47.159Z,8.50
2022-11-17T09:59:16.647Z,8.40
2022-11-17T10:01:43.601Z,8.40
2022-11-17T10:04:14.291Z,8.40
2022-11-17T10:06:44.815Z,8.50
2022-11-17T10:09:40.184Z,8.60
2022-11-17T10:12:38.257Z,8.70
2022-11-17T10:15:24.296Z,8.60
2022-11-17T10:17:51.512Z,8.60
2022-11-17T10:20:18.811Z,8.60
2022-11-17T10:22:47.066Z,8.60
2022-11-17T10:25:35.612Z,8.70
2022-11-17T10:28:03.259Z,8.80
2022-11-17T10:30:30.300Z,8.90
2022-11-17T10:32:59.567Z,9.00
2022-11-17T10:35:31.877Z,9.10
2022-11-17T10:38:01.931Z,9.10
2022-11-17T10:40:41.169Z,9.10
2022-11-17T10:43:14.091Z,9.20
2022-11-17T10:46:05.084Z,9.10
2022-11-17T10:48:37.143Z,9.20
2022-11-17T10:51:23.223Z,9.30
2022-11-17T10:54:07.155Z,9.30
2022-11-17T10:56:45.169Z,9.30
2022-11-17T10:59:16.325Z,9.20
2022-11-17T11:01:44.509Z,9.30
2022-11-17T11:04:35.753Z,9.30
2022-11-17T11:07:12.778Z,9.50
2022-11-17T11:10:00.691Z,9.40
2022-11-17T11:12:41.516Z,9.20
2022-11-17T11:15:20.170Z,9.20
2022-11-17T11:17:47.030Z,9.00
2022-11-17T11:20:20.618Z,9.20
2022-11-17T11:23:20.311Z,9.20
2022-11-17T11:25:54.793Z,9.10
2022-11-17T11:28:52.693Z,9.10
2022-11-17T11:31:32.756Z,9.00
2022-11-17T11:34:23.509Z,8.90
2022-11-17T11:36:53.682Z,9.10
2022-11-17T11:39:32.380Z,9.30
2022-11-17T11:42:22.762Z,9.10
2022-11-17T11:44:59.279Z,9.20
2022-11-17T11:47:26.026Z,9.40
2022-11-17T11:50:25.345Z,9.40
2022-11-17T11:53:11.280Z,9.00
2022-11-17T11:55:41.222Z,9.00
2022-11-17T11:58:17.260Z,9.00
2022-11-17T12:00:45.316Z,9.00
2022-11-17T12:03:15.306Z,9.00
2022-11-17T12:06:14.443Z,9.00
2022-11-17T12:08:50.946Z,8.90
2022-11-17T12:11:18.094Z,8.90
2022-11-17T12:13:49.792Z,9.00
2022-11-17T12:16:27.347Z,9.00
2022-11-17T12:18:54.171Z,9.20
2022-11-17T12:21:25.921Z,9.10
2022-11-17T12:24:18.677Z,9.20
2022-11-17T12:26:45.463Z,9.10
2022-11-17T12:29:21.047Z,9.30
2022-11-17T12:31:59.810Z,9.10
2022-11-17T12:34:30.784Z,9.00
2022-11-17T12:37:12.808Z,9.10
2022-11-17T12:39:59.812Z,9.00
2022-11-17T12:42:28.789Z,9.10
2022-11-17T12:45:04.318Z,9.10
2022-11-17T12:47:36.942Z,9.10
2022-11-17T12:50:13.073Z,9.30
2022-11-17T12:53:11.190Z,9.30
2022-11-17T12:56:05.858Z,9.50
2022-11-17T12:58:57.777Z,9.60
2022-11-17T13:02:01.961Z,9.60
2022-11-17T13:04:49.421Z,9.60
2022-11-17T13:07:25.213Z,9.40
2022-11-17T13:09:57.331Z,9.40
2022-11-17T13:12:32.102Z,9.40
2022-11-17T13:15:04.850Z,9.40
2022-11-17T13:17:34.524Z,9.40
2022-11-17T13:20:23.253Z,9.50
2022-11-17T13:23:00.363Z,9.80
2022-11-17T13:25:27.222Z,9.60
2022-11-17T13:27:58.383Z,9.40
2022-11-17T13:30:29.244Z,9.40
2022-11-17T13:32:57.416Z,9.30
2022-11-17T13:35:29.541Z,9.30
2022-11-17T13:38:11.258Z,9.30
2022-11-17T13:40:40.423Z,9.30
2022-11-17T13:43:11.735Z,9.30
2022-11-17T13:45:38.834Z,9.30
2022-11-17T13:48:05.848Z,9.30
2022-11-17T13:50:36.223Z,9.40
2022-11-17T13:53:08.426Z,9.40
2022-11-17T13:55:35.758Z,9.30
2022-11-17T13:58:27.159Z,9.50
2022-11-17T14:00:56.617Z,9.30
2022-11-17T14:03:46.918Z,9.10
2022-11-17T14:06:14.368Z,9.20
2022-11-17T14:08:43.041Z,9.20
2022-11-17T14:11:09.822Z,9.00
2022-11-17T14:13:48.471Z,8.90
2022-11-17T14:16:37.374Z,8.80
2022-11-17T14:19:15.482Z,8.70
2022-11-17T14:22:24.733Z,8.70
2022-11-17T14:24:56.349Z,8.60
2022-11-17T14:27:28.924Z,8.60
2022-11-17T14:29:55.689Z,8.50
2022-11-17T14:32:22.467Z,8.50
2022-11-17T14:34:49.275Z,8.50
2022-11-17T14:37:16.088Z,8.50
2022-11-17T14:39:43.255Z,8.40
2022-11-17T14:42:10.974Z,8.40
2022-11-17T14:44:39.162Z,8.40
2022-11-17T14:47:06.249Z,8.30
2022-11-17T14:49:33.012Z,8.20
2022-11-17T14:51:59.820Z,8.10
2022-11-17T14:54:26.589Z,8.00
2022-11-17T14:56:53.394Z,8.00
2022-11-17T14:59:20.180Z,7.90
2022-11-17T15:01:47.018Z,7.90
2022-11-17T15:04:48.351Z,7.80
2022-11-17T15:07:01.978Z,7.70
2022-11-17T15:09:28.905Z,7.80
2022-11-17T15:11:55.695Z,7.70
2022-11-17T15:14:22.486Z,7.80
2022-11-17T15:16:49.580Z,7.70
2022-11-17T15:19:16.539Z,7.60
2022-11-17T15:21:43.323Z,7.60
2022-11-17T15:24:10.211Z,7.60
2022-11-17T15:26:37.083Z,7.50
2022-11-17T15:29:03.901Z,7.50
2022-11-17T15:31:30.897Z,7.50
2022-11-17T15:33:57.877Z,7.60
2022-11-17T15:36:24.919Z,7.50
2022-11-17T15:38:51.736Z,7.40
2022-11-17T15:41:18.539Z,7.20
2022-11-17T15:43:45.786Z,7.00
2022-11-17T15:46:17.651Z,7.00
2022-11-17T15:48:46.626Z,7.00
2022-11-17T15:51:18.154Z,6.90
2022-11-17T15:53:46.587Z,6.90
2022-11-17T15:56:14.567Z,6.70
2022-11-17T15:58:42.963Z,6.70
2022-11-17T16:01:11.076Z,6.40
2022-11-17T16:03:39.015Z,6.50
2022-11-17T16:06:06.107Z,6.40
2022-11-17T16:08:33.087Z,6.40
2022-11-17T16:11:00.087Z,6.30
2022-11-17T16:13:27.100Z,6.20
2022-11-17T16:15:54.179Z,6.10
2022-11-17T16:18:21.217Z,6.30
2022-11-17T16:20:48.083Z,6.30
2022-11-17T16:23:15.674Z,6.50
2022-11-17T16:25:44.143Z,6.40
2022-11-17T16:28:11.999Z,6.30
2022-11-17T16:30:40.322Z,6.40
2022-11-17T16:33:12.191Z,6.40
2022-11-17T16:35:39.637Z,6.50
2022-11-17T16:38:07.480Z,6.40
2022-11-17T16:40:34.256Z,6.50
2022-11-17T16:43:01.399Z,6.60
2022-11-17T16:45:28.391Z,6.50
2022-11-17T16:47:55.232Z,6.50
2022-11-17T16:50:22.159Z,6.50
2022-11-17T16:52:48.975Z,6.40
2022-11-17T16:55:15.837Z,6.30
2022-11-17T16:57:42.711Z,6.30
2022-11-17T17:00:10.468Z,6.30
2022-11-17T17:02:37.668Z,6.30
2022-11-17T17:05:04.849Z,6.30
2022-11-17T17:07:31.742Z,6.50
2022-11-17T17:09:58.568Z,6.50
2022-11-17T17:12:25.401Z,6.60
2022-11-17T17:14:52.198Z,6.60
2022-11-17T17:17:20.491Z,6.70
2022-11-17T17:19:47.739Z,6.70
2022-11-17T17:22:14.820Z,6.80
2022-11-17T17:24:41.774Z,6.80
2022-11-17T17:27:08.637Z,6.80
2022-11-17T17:29:35.593Z,6.70
2022-11-17T17:32:02.734Z,6.70
2022-11-17T17:34:29.876Z,6.70
2022-11-17T17:36:56.826Z,6.80
2022-11-17T17:39:23.962Z,6.80
2022-11-17T17:41:51.170Z,6.90
2022-11-17T17:44:19.683Z,6.70
2022-11-17T17:46:47.224Z,6.80
2022-11-17T17:49:14.625Z,6.80
2022-11-17T17:51:44.886Z,6.70
2022-11-17T17:54:17.886Z,6.80
2022-11-17T17:56:46.414Z,6.90
2022-11-17T17:59:14.245Z,6.90
2022-11-17T18:01:42.357Z,6.90
2022-11-17T18:04:15.284Z,6.90
2022-11-17T18:06:44.149Z,6.90
2022-11-17T18:09:11.637Z,6.90
2022-11-17T18:11:39.273Z,6.80
2022-11-17T18:14:06.936Z,6.80
2022-11-17T18:16:34.452Z,6.90
2022-11-17T18:19:04.398Z,6.90
2022-11-17T18:21:33.013Z,6.90
2022-11-17T18:24:03.144Z,6.90
2022-11-17T18:26:32.653Z,6.90
2022-11-17T18:29:02.922Z,6.90
2022-11-17T18:31:32.237Z,6.90
2022-11-17T18:34:33.229Z,7.00
2022-11-17T18:37:00.483Z,7.00
2022-11-17T18:39:27.698Z,6.90
2022-11-17T18:41:55.085Z,7.00
2022-11-17T18:44:22.078Z,7.00
2022-11-17T18:46:49.414Z,7.10
2022-11-17T18:49:16.872Z,7.00
2022-11-17T18:51:44.295Z,7.00
2022-11-17T18:54:12.270Z,6.90
2022-11-17T18:56:40.034Z,6.90
2022-11-17T18:59:07.802Z,7.00
2022-11-17T19:01:35.790Z,7.00
2022-11-17T19:04:03.340Z,7.20
2022-11-17T19:06:30.985Z,7.10
2022-11-17T19:08:59.996Z,7.10
2022-11-17T19:11:28.417Z,7.10
2022-11-17T19:13:55.872Z,7.10
2022-11-17T19:16:26.071Z,7.10
2022-11-17T19:18:55.491Z,7.10
2022-11-17T19:21:27.299Z,7.10
2022-11-17T19:23:58.825Z,7.00
2022-11-17T19:26:28.778Z,7.10
2022-11-17T19:28:58.201Z,7.00
2022-11-17T19:31:26.186Z,7.00
2022-11-17T19:33:54.329Z,7.00
2022-11-17T19:36:24.296Z,7.00
2022-11-17T19:38:53.101Z,6.90
2022-11-17T19:41:26.473Z,7.00
2022-11-17T19:44:13.291Z,7.10
2022-11-17T19:46:40.534Z,7.00
2022-11-17T19:49:07.504Z,7.10
2022-11-17T19:51:36.454Z,7.00
2022-11-17T19:54:09.595Z,7.00
2022-11-17T19:56:37.662Z,7.10
2022-11-17T19:59:06.148Z,7.00
2022-11-17T20:01:34.181Z,7.20
2022-11-17T20:04:02.250Z,7.00
2022-11-17T20:06:34.356Z,7.00
2022-11-17T20:09:01.719Z,7.10
2022-11-17T20:11:29.699Z,7.10
2022-11-17T20:13:57.242Z,7.20
2022-11-17T20:16:26.969Z,7.10
2022-11-17T20:18:58.981Z,7.20
2022-11-17T20:21:27.022Z,7.10
2022-11-17T20:23:55.055Z,7.00
2022-11-17T20:26:24.396Z,7.10
2022-11-17T20:28:52.745Z,7.20
2022-11-17T20:31:25.876Z,7.20
2022-11-17T20:33:55.672Z,7.20
2022-11-17T20:36:23.021Z,7.10
2022-11-17T20:38:51.355Z,7.20
2022-11-17T20:41:19.739Z,7.20
2022-11-17T20:43:52.459Z,7.20
2022-11-17T20:46:22.786Z,7.30
2022-11-17T20:48:50.868Z,7.30
2022-11-17T20:51:20.482Z,7.30
2022-11-17T20:53:47.871Z,7.30
2022-11-17T20:56:16.046Z,7.20
2022-11-17T20:58:43.817Z,7.20
2022-11-17T21:01:16.322Z,7.30
2022-11-17T21:03:44.618Z,7.20
2022-11-17T21:06:13.046Z,7.20
2022-11-17T21:08:41.516Z,7.10
2022-11-17T21:11:17.131Z,7.10
2022-11-17T21:13:44.289Z,7.10
2022-11-17T21:16:15.229Z,7.20
2022-11-17T21:18:47.466Z,7.20
2022-11-17T21:21:14.961Z,7.20
2022-11-17T21:23:43.241Z,7.20
2022-11-17T21:26:15.736Z,7.30
2022-11-17T21:28:43.316Z,7.20
2022-11-17T21:31:13.351Z,7.20
2022-11-17T21:33:40.962Z,7.20
2022-11-17T21:36:10.458Z,7.20
2022-11-17T21:38:38.039Z,7.20
2022-11-17T21:41:07.568Z,7.20
2022-11-17T21:43:37.115Z,7.20
2022-11-17T21:46:12.885Z,7.20
2022-11-17T21:48:39.981Z,7.20
2022-11-17T21:51:13.385Z,7.10
2022-11-17T21:53:40.191Z,7.20
2022-11-17T21:56:07.573Z,7.20
2022-11-17T21:58:34.583Z,7.20
2022-11-17T22:01:15.106Z,7.20
2022-11-17T22:03:43.845Z,7.30
2022-11-17T22:06:19.005Z,7.10
2022-11-17T22:08:47.182Z,7.10
2022-11-17T22:11:17.488Z,7.20
2022-11-17T22:13:44.310Z,7.20
2022-11-17T22:16:13.464Z,7.20
2022-11-17T22:18:41.377Z,7.10
2022-11-17T22:21:09.160Z,7.10
2022-11-17T22:23:35.966Z,7.20
2022-11-17T22:26:04.782Z,7.10
2022-11-17T22:28:31.904Z,7.20
2022-11-17T22:30:59.128Z,7.10
2022-11-17T22:33:25.946Z,7.00
2022-11-17T22:35:52.718Z,7.00
2022-11-17T22:38:19.641Z,7.10
2022-11-17T22:40:46.423Z,7.00
2022-11-17T22:43:15.268Z,7.00
2022-11-17T22:45:42.851Z,6.90
2022-11-17T22:48:09.619Z,6.80
2022-11-17T22:50:36.505Z,6.90
2022-11-17T22:53:03.680Z,6.90
2022-11-17T22:55:32.658Z,6.90
2022-11-17T22:57:59.451Z,7.00
2022-11-17T23:00:26.340Z,7.00
2022-11-17T23:02:53.621Z,6.90
2022-11-17T23:05:20.564Z,6.90
2022-11-17T23:07:47.430Z,6.90
2022-11-17T23:10:14.553Z,6.80
2022-11-17T23:12:41.638Z,6.80
2022-11-17T23:15:08.888Z,6.80
2022-11-17T23:17:35.721Z,6.80
2022-11-17T23:20:02.760Z,6.60
2022-11-17T23:22:29.694Z,6.60
2022-11-17T23:24:56.473Z,6.50
2022-11-17T23:27:23.278Z,6.50
2022-11-17T23:29:50.115Z,6.40
2022-11-17T23:32:16.964Z,6.30
2022-11-17T23:34:43.798Z,6.40
2022-11-17T23:37:10.790Z,6.20
2022-11-17T23:39:37.618Z,6.00
2022-11-17T23:42:04.962Z,6.00
2022-11-17T23:44:31.810Z,6.00
2022-11-17T23:49:25.763Z,5.70
2022-11-17T23:51:52.552Z,5.70
2022-11-17T23:54:19.308Z,5.80
2022-11-17T23:56:46.086Z,5.50
2022-11-17T23:59:12.855Z,5.40
